Time;durP1;ratioP1;P1;durP2;ratioP2;P2;SDS_P1;SDS_P2;PMS_P1;PMS_P2;Temp;Humidity;BMP_temperature;BMP_pressure;BME280_temperature;BME280_humidity;BME280_pressure;Samples;Min_cycle;Max_cycle;Signal;HPM_P1;HPM_P2
2023/12/11 00:01:39;;;;;;;1.60;1.00;;;10.50;98.20;;;;;;5042073;28;20497;-82
2023/12/11 00:04:06;;;;;;;1.60;1.10;;;10.50;98.20;;;;;;5054201;28;20685;-82
2023/12/11 00:06:32;;;;;;;1.60;1.10;;;10.50;98.20;;;;;;5045950;28;20563;-81
2023/12/11 00:08:59;;;;;;;1.60;1.00;;;10.50;98.20;;;;;;5052885;28;20489;-82
2023/12/11 00:11:28;;;;;;;1.60;1.20;;;10.50;98.20;;;;;;5041674;28;20553;-83
2023/12/11 00:13:54;;;;;;;1.60;1.20;;;10.50;98.20;;;;;;5055109;28;21167;-81
2023/12/11 00:16:24;;;;;;;1.60;1.10;;;10.50;98.20;;;;;;5041889;28;20587;-82
2023/12/11 00:18:51;;;;;;;1.60;1.10;;;10.50;98.20;;;;;;5048988;28;20478;-81
2023/12/11 00:21:18;;;;;;;1.60;1.10;;;10.50;98.20;;;;;;5043610;28;20553;-82
2023/12/11 00:23:45;;;;;;;1.60;1.10;;;10.50;98.20;;;;;;5060845;28;20849;-82
2023/12/11 00:26:12;;;;;;;1.60;1.00;;;10.60;98.20;;;;;;5043518;28;20715;-83
2023/12/11 00:28:41;;;;;;;1.60;1.10;;;10.60;98.20;;;;;;5049577;28;20497;-81
2023/12/11 00:31:08;;;;;;;1.60;1.10;;;10.60;98.20;;;;;;5040617;28;20478;-82
2023/12/11 00:33:36;;;;;;;1.60;1.10;;;10.60;98.20;;;;;;5063551;28;20489;-81
2023/12/11 00:36:03;;;;;;;1.60;1.10;;;10.60;98.20;;;;;;5041838;28;20894;-82
2023/12/11 00:38:31;;;;;;;1.60;1.10;;;10.50;98.20;;;;;;5058435;28;20983;-83
2023/12/11 00:40:58;;;;;;;1.60;1.20;;;10.50;98.20;;;;;;5041939;28;21011;-83
2023/12/11 00:43:25;;;;;;;1.60;1.00;;;10.50;98.20;;;;;;5055258;28;20538;-82
2023/12/11 00:45:53;;;;;;;1.60;1.10;;;10.50;98.20;;;;;;5039684;28;20900;-83
2023/12/11 00:48:20;;;;;;;1.60;1.10;;;10.50;98.20;;;;;;5048920;28;20482;-83
2023/12/11 00:50:47;;;;;;;1.60;1.10;;;10.50;98.20;;;;;;5047577;28;20524;-82
2023/12/11 00:53:14;;;;;;;1.60;1.10;;;10.50;98.20;;;;;;5047458;28;20510;-82
2023/12/11 00:55:41;;;;;;;1.60;1.10;;;10.40;98.20;;;;;;5047947;28;20782;-83
2023/12/11 00:58:07;;;;;;;1.60;1.10;;;10.40;98.20;;;;;;5047831;28;20568;-82
2023/12/11 01:00:34;;;;;;;1.60;1.20;;;10.40;98.20;;;;;;5041323;28;20966;-82
2023/12/11 01:03:03;;;;;;;1.60;1.10;;;10.40;98.20;;;;;;5027871;28;20483;-81
2023/12/11 01:05:30;;;;;;;1.60;1.10;;;10.40;98.20;;;;;;5044291;28;20624;-82
2023/12/11 01:07:57;;;;;;;1.60;1.10;;;10.40;98.20;;;;;;5049445;28;20507;-82
2023/12/11 01:10:24;;;;;;;1.60;1.10;;;10.40;98.20;;;;;;5041886;28;20462;-83
2023/12/11 01:12:51;;;;;;;1.60;1.10;;;10.40;98.20;;;;;;5025017;28;20586;-82
2023/12/11 01:15:18;;;;;;;1.60;1.20;;;10.40;98.20;;;;;;5044986;28;20497;-83
2023/12/11 01:17:44;;;;;;;1.60;1.10;;;10.40;98.20;;;;;;5049001;28;20508;-83
2023/12/11 01:20:13;;;;;;;1.60;1.10;;;10.40;98.20;;;;;;5045331;28;20826;-82
2023/12/11 01:22:40;;;;;;;1.60;1.20;;;10.40;98.20;;;;;;5022823;28;20563;-82
2023/12/11 01:25:08;;;;;;;1.60;1.10;;;10.50;98.20;;;;;;5044076;28;20490;-83
2023/12/11 01:27:35;;;;;;;1.60;1.10;;;10.50;98.20;;;;;;5026108;28;20833;-82
2023/12/11 01:30:02;;;;;;;1.60;1.10;;;10.40;98.20;;;;;;5041547;28;20486;-82
2023/12/11 01:32:30;;;;;;;1.60;1.10;;;10.50;98.20;;;;;;5029277;28;20562;-82
2023/12/11 01:34:56;;;;;;;1.60;1.10;;;10.40;98.20;;;;;;5040787;28;20868;-82
2023/12/11 01:37:25;;;;;;;1.60;1.10;;;10.40;98.20;;;;;;5028582;28;20494;-82
2023/12/11 01:39:52;;;;;;;1.60;1.10;;;10.40;98.20;;;;;;5042638;28;20689;-83
2023/12/11 01:42:19;;;;;;;1.60;1.00;;;10.50;98.20;;;;;;5023938;28;20511;-83
2023/12/11 01:44:46;;;;;;;1.60;1.20;;;10.50;98.20;;;;;;5039687;28;20487;-81
2023/12/11 01:47:14;;;;;;;1.60;1.20;;;10.50;98.20;;;;;;5026317;28;20479;-83
2023/12/11 01:49:41;;;;;;;1.60;1.20;;;10.50;98.20;;;;;;5040805;28;20478;-82
2023/12/11 01:52:09;;;;;;;1.60;1.10;;;10.60;98.20;;;;;;5027947;28;20494;-82
2023/12/11 01:54:38;;;;;;;1.60;1.20;;;10.70;98.20;;;;;;5041790;28;20530;-81
2023/12/11 01:57:07;;;;;;;1.60;1.10;;;10.70;98.20;;;;;;5028615;28;20513;-82
2023/12/11 01:59:34;;;;;;;1.60;1.10;;;10.80;98.20;;;;;;5043489;28;20483;-83
2023/12/11 02:02:02;;;;;;;1.60;1.10;;;10.80;98.20;;;;;;5029393;28;20482;-82
2023/12/11 02:04:29;;;;;;;1.53;1.00;;;10.80;98.20;;;;;;5044086;28;20541;-83
2023/12/11 02:06:56;;;;;;;1.60;1.10;;;10.90;98.20;;;;;;5028917;28;20525;-82
2023/12/11 02:09:23;;;;;;;1.60;1.10;;;10.90;98.20;;;;;;5040239;28;20533;-81
2023/12/11 02:11:52;;;;;;;1.60;1.30;;;10.90;98.20;;;;;;5039851;28;20641;-82
2023/12/11 02:14:19;;;;;;;1.60;1.10;;;11.00;98.20;;;;;;5051927;28;20952;-81
2023/12/11 02:16:45;;;;;;;1.60;1.20;;;11.00;98.20;;;;;;5026421;28;20510;-81
2023/12/11 02:19:12;;;;;;;1.60;1.07;;;11.00;98.20;;;;;;5037796;28;20514;-82
2023/12/11 02:21:39;;;;;;;1.57;1.00;;;11.00;98.20;;;;;;5028559;28;20618;-81
2023/12/11 02:24:11;;;;;;;1.60;1.10;;;11.00;98.20;;;;;;5038580;28;20546;-83
2023/12/11 02:26:39;;;;;;;1.60;1.10;;;11.00;98.20;;;;;;5039598;28;20501;-82
2023/12/11 02:29:05;;;;;;;1.60;1.10;;;11.00;98.20;;;;;;5050187;28;20490;-81
2023/12/11 02:31:32;;;;;;;1.60;1.10;;;11.00;98.20;;;;;;5035415;28;20991;-82
2023/12/11 02:33:59;;;;;;;1.60;1.10;;;10.90;98.20;;;;;;5050497;28;20291;-82
2023/12/11 02:36:25;;;;;;;1.60;1.10;;;10.90;98.20;;;;;;5028571;28;20506;-81
2023/12/11 02:38:52;;;;;;;1.60;1.20;;;10.80;98.20;;;;;;5039301;28;21008;-82
2023/12/11 02:41:19;;;;;;;1.60;1.10;;;10.80;98.20;;;;;;5033553;28;21047;-81
2023/12/11 02:43:48;;;;;;;1.60;1.20;;;10.80;98.20;;;;;;5057875;28;20992;-82
2023/12/11 02:46:15;;;;;;;1.60;1.10;;;10.70;98.20;;;;;;5040650;28;20553;-82
2023/12/11 02:48:42;;;;;;;1.60;1.10;;;10.80;98.20;;;;;;5049917;28;20537;-81
2023/12/11 02:51:09;;;;;;;1.57;1.00;;;10.80;98.20;;;;;;5040625;28;20540;-82
2023/12/11 02:53:35;;;;;;;1.60;1.20;;;10.80;98.20;;;;;;5050551;28;20560;-81
2023/12/11 02:56:02;;;;;;;1.60;1.20;;;10.80;98.20;;;;;;5041015;28;20459;-82
2023/12/11 02:58:29;;;;;;;1.60;1.10;;;10.80;98.20;;;;;;5065117;28;21079;-81
2023/12/11 03:00:57;;;;;;;1.70;1.00;;;10.80;98.20;;;;;;5034029;28;20545;-81
2023/12/11 03:03:24;;;;;;;1.60;1.10;;;10.70;98.20;;;;;;5048161;28;21008;-82
2023/12/11 03:05:51;;;;;;;1.60;1.10;;;10.70;98.20;;;;;;5038865;28;20458;-81
2023/12/11 03:08:18;;;;;;;1.60;1.20;;;10.80;98.20;;;;;;5048634;28;20501;-82
2023/12/11 03:10:45;;;;;;;1.60;1.10;;;10.80;98.20;;;;;;5045687;28;20490;-82
2023/12/11 03:13:12;;;;;;;1.60;1.27;;;10.80;98.20;;;;;;5034006;28;20551;-80
2023/12/11 03:15:39;;;;;;;1.60;1.10;;;10.90;98.20;;;;;;5049227;28;20554;-81
2023/12/11 03:18:07;;;;;;;1.60;1.10;;;10.90;98.20;;;;;;5050849;28;20949;-82
2023/12/11 03:20:34;;;;;;;1.60;1.20;;;10.90;98.20;;;;;;5052697;28;20529;-81
2023/12/11 03:23:01;;;;;;;1.60;1.10;;;10.90;98.20;;;;;;5037508;28;20786;-82
2023/12/11 03:25:28;;;;;;;1.57;1.10;;;10.90;98.20;;;;;;5058061;28;20470;-81
2023/12/11 03:27:54;;;;;;;1.60;1.10;;;10.90;98.20;;;;;;5053745;28;20517;-82
2023/12/11 03:30:21;;;;;;;1.50;1.00;;;10.90;98.20;;;;;;5048195;28;20454;-82
2023/12/11 03:32:48;;;;;;;1.60;1.10;;;10.90;98.20;;;;;;5040468;28;20314;-81
2023/12/11 03:35:16;;;;;;;1.60;1.10;;;10.90;98.20;;;;;;5050210;28;20888;-83
2023/12/11 03:37:43;;;;;;;2.50;1.93;;;10.90;98.20;;;;;;5042155;28;20509;-82
2023/12/11 03:40:11;;;;;;;1.60;1.10;;;11.00;98.20;;;;;;5051507;28;20940;-82
2023/12/11 03:42:38;;;;;;;1.60;1.10;;;11.00;98.20;;;;;;5035212;28;20562;-81
2023/12/11 03:45:06;;;;;;;1.60;1.00;;;11.00;98.20;;;;;;5054828;28;20470;-82
2023/12/11 03:47:33;;;;;;;1.60;1.10;;;10.90;98.20;;;;;;5054591;28;20474;-83
2023/12/11 03:50:00;;;;;;;1.60;1.00;;;10.90;98.20;;;;;;5049889;28;20470;-82
2023/12/11 03:52:28;;;;;;;1.60;1.10;;;10.90;98.20;;;;;;5043515;28;20478;-82
2023/12/11 03:54:55;;;;;;;1.60;1.10;;;10.80;98.20;;;;;;5053664;28;21012;-81
2023/12/11 03:57:22;;;;;;;1.60;1.10;;;10.80;98.20;;;;;;5050801;28;20473;-82
2023/12/11 03:59:49;;;;;;;1.60;1.10;;;10.80;98.20;;;;;;5054296;28;20504;-81
2023/12/11 04:02:16;;;;;;;1.70;1.47;;;10.80;98.20;;;;;;5041149;28;20482;-81
2023/12/11 04:04:43;;;;;;;1.60;1.10;;;10.90;98.20;;;;;;5048108;28;20491;-81
2023/12/11 04:07:10;;;;;;;1.57;1.07;;;10.90;98.20;;;;;;5040639;28;20658;-82
2023/12/11 04:09:37;;;;;;;1.60;1.20;;;10.90;98.20;;;;;;5045781;28;20562;-81
2023/12/11 04:12:04;;;;;;;1.60;1.13;;;11.00;98.20;;;;;;5048713;28;20478;-82
2023/12/11 04:14:31;;;;;;;1.60;1.10;;;11.00;98.20;;;;;;5051018;28;20966;-81
2023/12/11 04:16:58;;;;;;;1.60;1.10;;;11.00;98.20;;;;;;5044097;28;20555;-81
2023/12/11 04:19:25;;;;;;;1.60;1.10;;;11.00;98.20;;;;;;5051776;28;20540;-82
2023/12/11 04:21:52;;;;;;;1.60;1.10;;;11.00;98.20;;;;;;5036190;28;20529;-82
2023/12/11 04:24:19;;;;;;;1.60;1.10;;;11.00;98.20;;;;;;5048922;28;20538;-82
2023/12/11 04:26:47;;;;;;;1.60;1.07;;;11.00;98.20;;;;;;5039048;28;20608;-83
2023/12/11 04:29:14;;;;;;;1.60;1.10;;;11.00;98.20;;;;;;5055163;28;20486;-82
2023/12/11 04:31:41;;;;;;;1.60;1.10;;;11.00;98.20;;;;;;5040752;28;20498;-82
2023/12/11 04:34:08;;;;;;;1.60;1.40;;;11.00;98.20;;;;;;5049566;28;21021;-82
2023/12/11 04:36:34;;;;;;;1.60;1.10;;;11.00;98.20;;;;;;5038050;28;20602;-82
2023/12/11 04:39:22;;;;;;;1.60;1.23;;;11.00;98.20;;;;;;5065554;28;20517;-81
2023/12/11 04:41:51;;;;;;;1.60;1.10;;;11.10;98.20;;;;;;5032673;28;20514;-81
2023/12/11 04:44:17;;;;;;;1.60;1.10;;;11.10;98.20;;;;;;5042914;28;20458;-80
2023/12/11 04:46:44;;;;;;;1.60;1.10;;;11.10;98.20;;;;;;5041128;28;21147;-82
2023/12/11 04:49:11;;;;;;;1.60;1.10;;;11.10;98.20;;;;;;5052636;28;20523;-81
2023/12/11 04:51:43;;;;;;;1.50;1.00;;;11.10;98.20;;;;;;5046974;28;20533;-84
2023/12/11 04:54:15;;;;;;;1.60;1.10;;;11.10;98.20;;;;;;5049738;28;20462;-84
2023/12/11 04:56:45;;;;;;;1.60;1.03;;;11.10;98.20;;;;;;5050852;28;20477;-83
2023/12/11 04:59:13;;;;;;;1.60;1.20;;;11.00;98.20;;;;;;5058285;28;20939;-84
2023/12/11 05:01:40;;;;;;;1.60;1.20;;;11.00;98.20;;;;;;5042431;28;20505;-85
2023/12/11 05:04:16;;;;;;;1.60;1.20;;;10.90;98.20;;;;;;5045982;28;20455;-85
2023/12/11 05:06:48;;;;;;;1.60;1.20;;;10.90;98.20;;;;;;5038443;28;20576;-84
2023/12/11 05:09:24;;;;;;;1.60;1.07;;;10.90;98.20;;;;;;5042225;28;20456;-84
2023/12/11 05:11:51;;;;;;;1.60;1.10;;;10.80;98.20;;;;;;5041447;28;20486;-85
2023/12/11 05:14:23;;;;;;;1.57;1.10;;;10.80;98.20;;;;;;5055036;28;20511;-84
2023/12/11 05:16:50;;;;;;;1.60;1.13;;;10.70;98.20;;;;;;5036766;28;20977;-84
2023/12/11 05:19:23;;;;;;;1.53;1.10;;;10.70;98.20;;;;;;5041843;28;20577;-83
2023/12/11 05:24:33;;;;;;;1.60;1.20;;;10.60;98.20;;;;;;5039678;28;20479;-83
2023/12/11 05:27:00;;;;;;;1.60;1.10;;;10.60;98.20;;;;;;5045767;28;20572;-83
2023/12/11 05:29:31;;;;;;;1.57;1.00;;;10.50;98.20;;;;;;5052986;28;20450;-83
2023/12/11 05:31:58;;;;;;;1.60;1.10;;;10.50;98.20;;;;;;5029338;28;20505;-82
2023/12/11 05:34:25;;;;;;;1.60;1.10;;;10.50;98.20;;;;;;5036406;28;20937;-83
2023/12/11 05:37:01;;;;;;;1.60;1.20;;;10.50;98.20;;;;;;5044246;28;20515;-83
2023/12/11 05:39:28;;;;;;;1.60;1.00;;;10.40;98.20;;;;;;5049194;28;20481;-84
2023/12/11 05:42:03;;;;;;;1.63;1.20;;;10.40;98.20;;;;;;5039594;28;20538;-85
2023/12/11 05:44:35;;;;;;;1.60;1.20;;;10.40;98.20;;;;;;5043880;28;20500;-84
2023/12/11 05:50:05;;;;;;;1.60;1.10;;;10.30;98.20;;;;;;5044920;28;20470;-84
2023/12/11 05:52:32;;;;;;;1.60;1.10;;;10.30;98.20;;;;;;5049905;28;20489;-84
2023/12/11 05:54:59;;;;;;;1.60;1.10;;;10.20;98.20;;;;;;5050524;28;20491;-84
2023/12/11 05:57:25;;;;;;;1.60;1.10;;;10.10;98.20;;;;;;5034294;28;20502;-84
2023/12/11 05:59:54;;;;;;;1.60;1.10;;;10.10;98.20;;;;;;5049158;28;20596;-84
2023/12/11 06:02:21;;;;;;;1.60;1.10;;;10.00;98.20;;;;;;5029418;28;20492;-84
2023/12/11 06:04:48;;;;;;;1.60;1.10;;;10.00;98.20;;;;;;5046734;28;20488;-83
2023/12/11 06:07:14;;;;;;;1.60;1.10;;;9.90;98.20;;;;;;5029294;28;20566;-83
2023/12/11 06:09:41;;;;;;;1.57;1.10;;;9.90;98.20;;;;;;5047479;28;20530;-81
2023/12/11 06:12:09;;;;;;;1.60;1.20;;;9.90;98.20;;;;;;5053489;28;20895;-83
2023/12/11 06:14:39;;;;;;;1.60;1.00;;;9.90;98.20;;;;;;5058858;28;20569;-80
2023/12/11 06:17:08;;;;;;;1.60;1.10;;;9.90;98.20;;;;;;5050926;28;20492;-83
2023/12/11 06:19:35;;;;;;;1.60;1.10;;;9.90;98.20;;;;;;5057001;28;20939;-83
2023/12/11 06:22:02;;;;;;;1.60;1.10;;;9.90;98.20;;;;;;5052736;28;20481;-83
2023/12/11 06:24:29;;;;;;;1.60;1.20;;;9.90;98.20;;;;;;5061520;28;20508;-84
2023/12/11 06:26:56;;;;;;;1.70;1.40;;;9.90;98.20;;;;;;5038218;28;20539;-80
2023/12/11 06:29:23;;;;;;;1.60;1.03;;;9.90;98.20;;;;;;5049890;28;20482;-83
2023/12/11 06:31:49;;;;;;;1.60;1.20;;;9.90;98.20;;;;;;5038188;28;20481;-82
2023/12/11 06:34:52;;;;;;;1.60;1.20;;;9.90;98.20;;;;;;5057672;28;20490;-79
2023/12/11 06:37:25;;;;;;;1.60;1.10;;;9.90;98.20;;;;;;5031559;28;20531;-78
2023/12/11 06:39:52;;;;;;;1.60;1.10;;;9.90;98.20;;;;;;5047516;28;20931;-78
2023/12/11 06:42:20;;;;;;;1.60;1.10;;;9.90;98.20;;;;;;5048104;28;20918;-78
2023/12/11 06:44:47;;;;;;;1.60;1.10;;;9.90;98.20;;;;;;5052545;28;20466;-78
2023/12/11 06:47:14;;;;;;;1.60;1.10;;;10.00;98.20;;;;;;5038922;28;20515;-78
2023/12/11 06:49:42;;;;;;;1.60;1.20;;;9.90;98.20;;;;;;5049027;28;20478;-78
2023/12/11 06:52:09;;;;;;;1.60;1.10;;;10.00;98.20;;;;;;5047595;28;20482;-78
2023/12/11 06:54:37;;;;;;;1.60;1.10;;;9.90;98.20;;;;;;5053515;28;20462;-78
2023/12/11 06:57:05;;;;;;;1.60;1.20;;;10.00;98.20;;;;;;5038001;28;20505;-78
2023/12/11 06:59:32;;;;;;;1.60;1.10;;;10.00;98.20;;;;;;5047360;28;20776;-78
2023/12/11 07:01:59;;;;;;;1.60;1.20;;;10.00;98.20;;;;;;5047350;28;21075;-79
2023/12/11 07:04:26;;;;;;;1.60;1.17;;;10.10;98.20;;;;;;5054657;28;21011;-79
2023/12/11 07:06:53;;;;;;;1.60;1.10;;;10.10;98.20;;;;;;5047091;28;20523;-80
2023/12/11 07:09:20;;;;;;;1.60;1.10;;;10.20;98.20;;;;;;5056861;28;20489;-78
2023/12/11 07:11:48;;;;;;;1.60;1.10;;;10.20;98.20;;;;;;5042252;28;20478;-78
2023/12/11 07:14:15;;;;;;;1.60;1.10;;;10.30;98.20;;;;;;5051632;28;20462;-78
2023/12/11 07:16:42;;;;;;;1.70;1.30;;;10.30;98.20;;;;;;5038917;28;21184;-78
2023/12/11 07:19:09;;;;;;;1.60;1.23;;;10.30;98.20;;;;;;5053954;28;20469;-79
2023/12/11 07:21:36;;;;;;;1.80;1.50;;;10.40;98.20;;;;;;5038060;28;20560;-80
2023/12/11 07:24:03;;;;;;;1.60;1.10;;;10.40;98.20;;;;;;5057183;28;20558;-81
2023/12/11 07:26:31;;;;;;;1.60;1.10;;;10.40;98.20;;;;;;5040844;28;21126;-80
2023/12/11 07:29:00;;;;;;;1.60;1.10;;;10.50;98.20;;;;;;5055951;28;20942;-79
2023/12/11 07:31:26;;;;;;;1.60;1.10;;;10.50;98.20;;;;;;5038926;28;20555;-79
2023/12/11 07:33:54;;;;;;;1.60;1.30;;;10.50;98.20;;;;;;5052638;28;20500;-78
2023/12/11 07:36:21;;;;;;;1.63;1.20;;;10.60;98.20;;;;;;5039723;28;20501;-80
2023/12/11 07:38:49;;;;;;;1.60;1.20;;;10.60;98.20;;;;;;5055991;28;20458;-79
2023/12/11 07:41:20;;;;;;;1.60;1.10;;;10.70;98.20;;;;;;5035702;28;20466;-79
2023/12/11 07:43:47;;;;;;;1.60;1.20;;;10.70;98.20;;;;;;5055389;28;21026;-79
2023/12/11 07:46:18;;;;;;;1.60;1.10;;;10.80;98.20;;;;;;5038870;28;20501;-78
2023/12/11 07:48:45;;;;;;;1.60;1.10;;;10.80;98.20;;;;;;5058672;28;20545;-79
2023/12/11 07:51:35;;;;;;;1.60;1.10;;;10.80;98.20;;;;;;5040010;28;20478;-79
2023/12/11 07:54:07;;;;;;;1.60;1.10;;;10.80;98.20;;;;;;5048184;28;20464;-78
2023/12/11 07:56:35;;;;;;;1.57;1.00;;;10.90;98.20;;;;;;5035317;28;20977;-76
2023/12/11 07:59:02;;;;;;;1.60;1.00;;;10.90;98.20;;;;;;5054768;28;20460;-75
2023/12/11 08:01:31;;;;;;;1.60;1.10;;;10.90;98.20;;;;;;5041602;28;20489;-76
2023/12/11 08:03:59;;;;;;;1.60;1.10;;;10.90;98.20;;;;;;5055999;28;20565;-76
2023/12/11 08:06:26;;;;;;;1.60;1.10;;;11.00;98.20;;;;;;5039882;28;20473;-76
2023/12/11 08:08:55;;;;;;;1.60;1.10;;;11.00;98.20;;;;;;5053052;28;21116;-77
2023/12/11 08:11:24;;;;;;;1.60;1.10;;;11.00;98.20;;;;;;5036973;28;21007;-76
2023/12/11 08:13:51;;;;;;;1.60;1.20;;;11.00;98.20;;;;;;5054298;28;20508;-77
2023/12/11 08:16:18;;;;;;;1.60;1.10;;;11.00;98.20;;;;;;5034711;28;20564;-77
2023/12/11 08:18:48;;;;;;;1.60;1.10;;;11.00;98.20;;;;;;5052358;28;20569;-77
2023/12/11 08:21:16;;;;;;;1.60;1.20;;;11.10;98.20;;;;;;5035480;28;20482;-77
2023/12/11 08:23:43;;;;;;;1.60;1.20;;;11.10;98.20;;;;;;5056728;28;20485;-77
2023/12/11 08:26:10;;;;;;;1.60;1.10;;;11.10;98.20;;;;;;5036951;28;20482;-77
2023/12/11 08:28:38;;;;;;;1.60;1.10;;;11.10;98.20;;;;;;5054219;28;20460;-77
2023/12/11 08:31:05;;;;;;;1.50;1.00;;;11.10;98.20;;;;;;5034521;28;20501;-77
2023/12/11 08:33:32;;;;;;;1.60;1.10;;;11.10;98.20;;;;;;5045605;28;20597;-78
2023/12/11 08:36:01;;;;;;;1.73;1.43;;;11.10;98.20;;;;;;5035342;28;20471;-77
2023/12/11 08:38:28;;;;;;;1.60;1.10;;;11.20;98.20;;;;;;5059307;28;20550;-77
2023/12/11 08:40:55;;;;;;;1.60;1.20;;;11.20;98.20;;;;;;5037809;28;21180;-77
2023/12/11 08:43:22;;;;;;;1.60;1.10;;;11.20;98.20;;;;;;5061775;28;20483;-77
2023/12/11 08:45:49;;;;;;;1.60;1.10;;;11.20;98.20;;;;;;5038357;28;21014;-76
2023/12/11 08:48:16;;;;;;;1.60;1.10;;;11.20;98.20;;;;;;5060611;28;20944;-76
2023/12/11 08:50:43;;;;;;;1.60;1.10;;;11.20;98.20;;;;;;5047807;28;20494;-77
2023/12/11 08:53:12;;;;;;;1.60;1.10;;;11.20;98.20;;;;;;5050732;28;20965;-77
2023/12/11 08:55:39;;;;;;;1.60;1.10;;;11.20;98.20;;;;;;5047476;28;20511;-77
2023/12/11 08:58:06;;;;;;;1.60;1.10;;;11.20;98.20;;;;;;5045950;28;21061;-76
2023/12/11 09:00:33;;;;;;;1.60;1.10;;;11.20;98.20;;;;;;5043025;28;20655;-77
2023/12/11 09:03:00;;;;;;;1.60;1.10;;;11.20;98.20;;;;;;5047873;28;20497;-77
2023/12/11 09:05:27;;;;;;;1.60;1.10;;;11.20;98.20;;;;;;5047351;28;20580;-76
2023/12/11 09:07:55;;;;;;;1.70;1.37;;;11.20;98.20;;;;;;5048108;28;20520;-77
2023/12/11 09:10:23;;;;;;;1.60;1.10;;;11.20;98.20;;;;;;5039988;28;20830;-77
2023/12/11 09:12:50;;;;;;;1.57;1.07;;;11.20;98.20;;;;;;5048940;28;20631;-77
2023/12/11 09:15:17;;;;;;;1.60;1.20;;;11.20;98.20;;;;;;5042950;28;20558;-76
2023/12/11 09:17:44;;;;;;;1.60;1.00;;;11.20;98.20;;;;;;5049076;28;20908;-76
2023/12/11 09:20:11;;;;;;;1.57;1.10;;;11.20;98.20;;;;;;5046285;28;20516;-76
2023/12/11 09:22:39;;;;;;;1.60;1.10;;;11.20;98.20;;;;;;5050322;28;20504;-76
2023/12/11 09:25:07;;;;;;;1.60;1.00;;;11.20;98.20;;;;;;5046533;28;20502;-76
2023/12/11 09:27:37;;;;;;;1.60;1.10;;;11.20;98.20;;;;;;5043643;28;20509;-76
2023/12/11 09:30:04;;;;;;;1.60;1.10;;;11.10;98.20;;;;;;5045819;28;21340;-76
2023/12/11 09:32:32;;;;;;;1.60;1.10;;;11.10;98.20;;;;;;5038970;28;20602;-76
2023/12/11 09:35:00;;;;;;;1.60;1.10;;;11.10;98.20;;;;;;5044399;28;20729;-75
2023/12/11 09:37:27;;;;;;;1.60;1.10;;;11.10;98.20;;;;;;5049072;28;20500;-77
2023/12/11 09:39:54;;;;;;;1.60;1.03;;;11.00;98.20;;;;;;5050934;28;20577;-76
2023/12/11 09:42:21;;;;;;;1.60;1.10;;;11.00;98.20;;;;;;5048222;28;20473;-77
2023/12/11 09:44:51;;;;;;;1.60;1.10;;;11.00;98.20;;;;;;5045918;28;20493;-77
2023/12/11 09:47:24;;;;;;;1.60;1.20;;;11.00;98.20;;;;;;5044756;28;20497;-78
2023/12/11 09:49:51;;;;;;;1.60;1.10;;;11.00;98.20;;;;;;5046175;28;20553;-76
2023/12/11 09:52:24;;;;;;;1.60;1.10;;;11.00;98.20;;;;;;5045825;28;20485;-76
2023/12/11 09:54:51;;;;;;;1.60;1.10;;;11.00;98.20;;;;;;5047638;28;20457;-75
2023/12/11 09:57:18;;;;;;;1.60;1.17;;;11.00;98.20;;;;;;5047418;28;20469;-76
2023/12/11 09:59:48;;;;;;;1.57;1.00;;;11.00;98.20;;;;;;5046491;28;20836;-76
2023/12/11 10:02:25;;;;;;;1.57;1.07;;;11.00;98.20;;;;;;5045311;28;20501;-76
2023/12/11 10:05:02;;;;;;;1.60;1.07;;;11.00;98.20;;;;;;5045342;28;20975;-77
2023/12/11 10:07:29;;;;;;;1.60;1.10;;;10.90;98.20;;;;;;5043088;28;20850;-76
2023/12/11 10:09:56;;;;;;;1.60;1.10;;;10.90;98.20;;;;;;5040706;28;20546;-76
2023/12/11 10:12:23;;;;;;;1.60;1.10;;;10.90;98.20;;;;;;5041474;28;21396;-77
2023/12/11 10:15:01;;;;;;;1.60;1.10;;;10.90;98.20;;;;;;5047332;28;20504;-77
2023/12/11 10:17:31;;;;;;;1.60;1.10;;;10.90;98.20;;;;;;5044047;28;21220;-76
2023/12/11 10:19:58;;;;;;;1.60;1.20;;;10.90;98.20;;;;;;5038618;28;20451;-77
2023/12/11 10:22:30;;;;;;;1.60;1.07;;;11.00;98.20;;;;;;5041915;28;20572;-76
2023/12/11 10:24:58;;;;;;;1.60;1.20;;;11.00;98.20;;;;;;5042397;28;20875;-76
2023/12/11 10:27:25;;;;;;;1.57;1.10;;;11.00;98.20;;;;;;5043865;28;21070;-76
2023/12/11 10:30:08;;;;;;;1.57;1.00;;;11.10;98.20;;;;;;5043265;28;20891;-76
2023/12/11 10:32:36;;;;;;;1.60;1.10;;;11.10;98.20;;;;;;5045993;28;20856;-76
2023/12/11 10:35:05;;;;;;;1.60;1.10;;;11.10;98.20;;;;;;5042404;28;20465;-77
2023/12/11 10:37:34;;;;;;;1.60;1.10;;;11.10;98.20;;;;;;5048053;28;21074;-77
2023/12/11 10:40:02;;;;;;;1.60;1.00;;;11.20;98.20;;;;;;5043285;28;20528;-78
2023/12/11 10:42:29;;;;;;;1.60;1.10;;;11.20;98.20;;;;;;5043278;28;20634;-76
2023/12/11 10:44:57;;;;;;;1.60;1.10;;;11.30;98.20;;;;;;5043163;28;20481;-76
2023/12/11 10:47:24;;;;;;;1.60;1.10;;;11.30;98.20;;;;;;5042171;28;21023;-76
2023/12/11 10:50:03;;;;;;;1.60;1.10;;;11.20;98.20;;;;;;5047696;28;20660;-76
2023/12/11 10:52:30;;;;;;;1.60;1.10;;;11.20;98.20;;;;;;5045982;28;20481;-76
2023/12/11 10:54:56;;;;;;;1.60;1.00;;;11.20;98.20;;;;;;5046302;28;20630;-75
2023/12/11 10:57:25;;;;;;;1.60;1.10;;;11.20;98.20;;;;;;5046676;28;20488;-77
2023/12/11 10:59:52;;;;;;;1.60;1.10;;;11.20;98.20;;;;;;5051138;28;21120;-76
2023/12/11 11:02:24;;;;;;;1.60;1.20;;;11.30;98.20;;;;;;5045775;28;20477;-76
2023/12/11 11:04:52;;;;;;;1.60;1.00;;;11.30;98.20;;;;;;5040370;28;20454;-75
2023/12/11 11:07:26;;;;;;;1.60;1.03;;;11.30;98.20;;;;;;5043825;28;20478;-76
2023/12/11 11:10:03;;;;;;;1.60;1.10;;;11.30;98.20;;;;;;5045640;28;20550;-77
2023/12/11 11:12:38;;;;;;;1.60;1.00;;;11.20;98.20;;;;;;5039190;28;20560;-76
2023/12/11 11:15:09;;;;;;;1.60;1.10;;;11.20;98.20;;;;;;5042402;28;20968;-76
2023/12/11 11:17:57;;;;;;;1.60;1.10;;;11.10;98.20;;;;;;5052934;28;20500;-75
2023/12/11 11:20:25;;;;;;;1.60;1.00;;;11.10;98.20;;;;;;5037854;28;20464;-79
2023/12/11 11:22:53;;;;;;;1.60;1.00;;;11.10;98.20;;;;;;5055742;28;20539;-77
2023/12/11 11:25:36;;;;;;;1.60;1.10;;;11.10;98.20;;;;;;5049771;28;20469;-76
2023/12/11 11:28:03;;;;;;;1.57;1.00;;;11.10;98.20;;;;;;5052662;28;20534;-76
2023/12/11 11:30:54;;;;;;;7.30;2.57;;;11.20;98.20;;;;;;5044864;28;20463;-76
2023/12/11 11:33:21;;;;;;;1.60;1.10;;;11.20;98.20;;;;;;5023415;28;20902;-76
2023/12/11 11:35:51;;;;;;;1.60;1.10;;;11.20;98.20;;;;;;5038499;28;20454;-77
2023/12/11 11:38:45;;;;;;;1.60;1.07;;;11.20;98.20;;;;;;5061971;28;20881;-77
2023/12/11 11:41:22;;;;;;;2.80;2.60;;;11.20;98.20;;;;;;5033354;28;20894;-76
2023/12/11 11:43:59;;;;;;;1.60;1.10;;;11.10;98.20;;;;;;5057166;28;20482;-77
2023/12/11 11:46:26;;;;;;;1.60;1.10;;;11.10;98.20;;;;;;5040124;28;20475;-77
2023/12/11 11:48:53;;;;;;;1.60;1.10;;;11.00;98.20;;;;;;5058541;28;20861;-77
2023/12/11 11:51:22;;;;;;;1.57;1.00;;;11.00;98.20;;;;;;5040200;28;21011;-77
2023/12/11 11:53:57;;;;;;;1.60;1.07;;;11.00;98.20;;;;;;5058003;28;20936;-76
2023/12/11 11:56:24;;;;;;;1.60;1.00;;;11.00;98.20;;;;;;5034339;28;20523;-76
2023/12/11 11:58:51;;;;;;;1.60;1.00;;;11.00;98.20;;;;;;5051114;28;20549;-76
2023/12/11 12:01:18;;;;;;;1.60;1.00;;;11.00;98.20;;;;;;5038537;28;20496;-77
2023/12/11 12:03:45;;;;;;;1.60;1.07;;;10.90;98.20;;;;;;5060132;28;20470;-76
2023/12/11 12:06:14;;;;;;;1.60;1.00;;;10.90;98.20;;;;;;5040593;28;20927;-76
2023/12/11 12:08:44;;;;;;;1.60;1.10;;;10.90;98.20;;;;;;5061144;28;20559;-76
2023/12/11 12:11:12;;;;;;;1.60;1.10;;;10.90;98.20;;;;;;5040264;28;20563;-76
2023/12/11 12:13:39;;;;;;;1.57;1.07;;;10.80;98.20;;;;;;5058104;28;20481;-77
2023/12/11 12:16:07;;;;;;;1.53;1.00;;;10.80;98.20;;;;;;5038945;28;20553;-76
2023/12/11 12:18:34;;;;;;;1.60;1.00;;;10.80;98.20;;;;;;5055762;28;20530;-76
2023/12/11 12:21:04;;;;;;;1.60;1.10;;;10.80;98.20;;;;;;5036502;28;20454;-76
2023/12/11 12:23:31;;;;;;;1.60;1.10;;;10.90;98.20;;;;;;5046691;28;20513;-77
2023/12/11 12:26:01;;;;;;;1.60;1.10;;;11.00;98.20;;;;;;5036069;28;20526;-77
2023/12/11 12:28:28;;;;;;;1.60;1.00;;;11.10;98.20;;;;;;5043323;28;20482;-77
2023/12/11 12:30:55;;;;;;;1.60;1.10;;;11.10;98.20;;;;;;5021363;28;20519;-76
2023/12/11 12:33:23;;;;;;;1.60;1.10;;;11.20;98.20;;;;;;5044188;28;20483;-78
2023/12/11 12:35:50;;;;;;;1.60;1.10;;;11.40;98.20;;;;;;5015778;28;21198;-76
2023/12/11 12:38:18;;;;;;;1.60;1.10;;;11.40;98.20;;;;;;5038876;28;20471;-77
2023/12/11 12:40:45;;;;;;;1.60;1.10;;;11.40;98.20;;;;;;5022665;28;20467;-76
2023/12/11 12:43:14;;;;;;;1.60;1.20;;;11.40;98.20;;;;;;5043070;28;20706;-77
2023/12/11 12:45:41;;;;;;;1.60;1.00;;;11.50;98.20;;;;;;5024596;28;20467;-77
2023/12/11 12:48:09;;;;;;;1.60;1.10;;;11.50;98.20;;;;;;5038189;28;20479;-77
2023/12/11 12:50:36;;;;;;;1.60;1.10;;;11.50;98.20;;;;;;5022129;28;20721;-77
2023/12/11 12:53:05;;;;;;;1.60;1.00;;;11.50;98.20;;;;;;5036254;28;20547;-77
2023/12/11 12:55:32;;;;;;;1.60;1.10;;;11.50;98.20;;;;;;5024797;28;20485;-77
2023/12/11 12:57:59;;;;;;;1.60;1.10;;;11.40;98.20;;;;;;5038172;28;20484;-77
2023/12/11 13:00:27;;;;;;;1.60;1.10;;;11.40;98.20;;;;;;5022191;28;20570;-78